Time;durP1;ratioP1;P1;durP2;ratioP2;P2;SDS_P1;SDS_P2;PMS_P1;PMS_P2;Temp;Humidity;BMP_temperature;BMP_pressure;BME280_temperature;BME280_humidity;BME280_pressure;Samples;Min_cycle;Max_cycle;Signal;HPM_P1;HPM_P2
2022/04/18 00:00:16;;;;;;;0.00;0.00;;;;;;;;;;4976732;28;20317;-64
2022/04/18 00:02:45;;;;;;;0.20;0.20;;;;;;;;;;4976603;28;20656;-66
2022/04/18 00:05:12;;;;;;;0.00;0.00;;;;;;;;;;4976416;28;20195;-66
2022/04/18 00:07:39;;;;;;;0.00;0.00;;;;;;;;;;4975693;28;20289;-65
2022/04/18 00:10:07;;;;;;;0.00;0.00;;;;;;;;;;4976273;28;20234;-67
2022/04/18 00:12:34;;;;;;;0.00;0.00;;;;;;;;;;4976492;28;20241;-66
2022/04/18 00:15:02;;;;;;;0.00;0.00;;;;;;;;;;4976680;28;20576;-66
2022/04/18 00:17:29;;;;;;;0.00;0.00;;;;;;;;;;4976317;28;20207;-66
2022/04/18 00:19:58;;;;;;;0.00;0.00;;;;;;;;;;4976268;28;20545;-66
2022/04/18 00:22:26;;;;;;;0.10;0.10;;;;;;;;;;4976129;28;20198;-67
2022/04/18 00:24:53;;;;;;;0.00;0.00;;;;;;;;;;4975615;28;20216;-67
2022/04/18 00:27:21;;;;;;;0.00;0.00;;;;;;;;;;4976041;28;20202;-67
2022/04/18 00:29:49;;;;;;;0.00;0.00;;;;;;;;;;4976021;28;20711;-65
2022/04/18 00:32:16;;;;;;;0.00;0.00;;;;;;;;;;4976364;28;20202;-65
2022/04/18 00:34:44;;;;;;;0.00;0.00;;;;;;;;;;4975975;28;20198;-65
2022/04/18 00:37:12;;;;;;;0.00;0.00;;;;;;;;;;4976048;28;20198;-65
2022/04/18 00:39:40;;;;;;;0.20;0.13;;;;;;;;;;4975600;28;20202;-65
2022/04/18 00:42:07;;;;;;;0.00;0.00;;;;;;;;;;4975964;28;20214;-66
2022/04/18 00:44:35;;;;;;;0.00;0.00;;;;;;;;;;4975979;28;20578;-65
2022/04/18 00:47:02;;;;;;;0.00;0.00;;;;;;;;;;4975858;28;20686;-66
2022/04/18 00:49:30;;;;;;;0.00;0.00;;;;;;;;;;4975377;28;20198;-66
2022/04/18 00:51:58;;;;;;;0.00;0.00;;;;;;;;;;4975891;28;21132;-66
2022/04/18 00:54:27;;;;;;;0.00;0.00;;;;;;;;;;4975868;28;20293;-66
2022/04/18 00:56:54;;;;;;;0.00;0.00;;;;;;;;;;4975066;28;20730;-66
2022/04/18 00:59:22;;;;;;;0.00;0.00;;;;;;;;;;4975558;28;20699;-66
2022/04/18 01:01:50;;;;;;;0.00;0.00;;;;;;;;;;4974463;28;20226;-66
2022/04/18 01:04:18;;;;;;;0.00;0.00;;;;;;;;;;4975608;28;20203;-66
2022/04/18 01:06:45;;;;;;;0.00;0.00;;;;;;;;;;4975756;28;20241;-66
2022/04/18 01:09:13;;;;;;;0.53;0.53;;;;;;;;;;4975261;28;20241;-66
2022/04/18 01:11:42;;;;;;;0.00;0.00;;;;;;;;;;4975296;28;20230;-66
2022/04/18 01:14:09;;;;;;;0.00;0.00;;;;;;;;;;4974656;28;20206;-66
2022/04/18 01:16:37;;;;;;;0.00;0.00;;;;;;;;;;4975444;28;20568;-66
2022/04/18 01:19:04;;;;;;;0.00;0.00;;;;;;;;;;4975172;28;20559;-66
2022/04/18 01:21:33;;;;;;;0.00;0.00;;;;;;;;;;4975076;28;20210;-66
2022/04/18 01:24:01;;;;;;;0.00;0.00;;;;;;;;;;4975394;28;20198;-66
2022/04/18 01:29:13;;;;;;;0.00;0.00;;;;;;;;;;4955961;29;20225;-65
2022/04/18 01:31:40;;;;;;;0.00;0.00;;;;;;;;;;4968870;28;20691;-65
2022/04/18 01:34:09;;;;;;;0.00;0.00;;;;;;;;;;4975136;28;20244;-66
2022/04/18 01:36:37;;;;;;;0.00;0.00;;;;;;;;;;4975048;28;20673;-65
2022/04/18 01:39:05;;;;;;;0.00;0.00;;;;;;;;;;4974945;28;20200;-65
2022/04/18 01:41:33;;;;;;;0.00;0.00;;;;;;;;;;4974537;28;20209;-65
2022/04/18 01:44:00;;;;;;;0.00;0.00;;;;;;;;;;4974991;28;20210;-65
2022/04/18 01:46:28;;;;;;;0.00;0.00;;;;;;;;;;4974695;28;20198;-65
2022/04/18 01:48:55;;;;;;;0.00;0.00;;;;;;;;;;4974164;28;20399;-65
2022/04/18 01:51:22;;;;;;;0.20;0.20;;;;;;;;;;4974241;28;20241;-65
2022/04/18 01:53:51;;;;;;;0.00;0.00;;;;;;;;;;4974545;28;20660;-65
2022/04/18 01:56:18;;;;;;;0.00;0.00;;;;;;;;;;4974681;28;20210;-65
2022/04/18 01:58:46;;;;;;;0.00;0.00;;;;;;;;;;4974542;28;20209;-65
2022/04/18 02:01:13;;;;;;;0.20;0.20;;;;;;;;;;4974238;28;20345;-64
2022/04/18 02:03:44;;;;;;;0.00;0.00;;;;;;;;;;4974535;28;20229;-65
2022/04/18 02:06:11;;;;;;;0.00;0.00;;;;;;;;;;4973752;28;20206;-64
2022/04/18 02:08:38;;;;;;;0.00;0.00;;;;;;;;;;4974235;28;20198;-65
2022/04/18 02:11:08;;;;;;;0.00;0.00;;;;;;;;;;4974218;28;20588;-65
2022/04/18 02:13:35;;;;;;;0.00;0.00;;;;;;;;;;4974228;28;20570;-65
2022/04/18 02:16:04;;;;;;;0.00;0.00;;;;;;;;;;4974282;28;20211;-64
2022/04/18 02:18:32;;;;;;;0.00;0.00;;;;;;;;;;4972976;28;20210;-65
2022/04/18 02:21:00;;;;;;;0.00;0.00;;;;;;;;;;4973934;28;20201;-65
2022/04/18 02:23:27;;;;;;;0.00;0.00;;;;;;;;;;4973436;28;20214;-66
2022/04/18 02:25:54;;;;;;;0.00;0.00;;;;;;;;;;4974339;28;20750;-65
2022/04/18 02:28:23;;;;;;;0.00;0.00;;;;;;;;;;4973833;28;20214;-65
2022/04/18 02:30:50;;;;;;;0.00;0.00;;;;;;;;;;4973858;28;20234;-65
2022/04/18 02:33:18;;;;;;;0.00;0.00;;;;;;;;;;4973746;28;20217;-67
2022/04/18 02:35:45;;;;;;;0.00;0.00;;;;;;;;;;4973801;28;20652;-65
2022/04/18 02:38:13;;;;;;;0.00;0.00;;;;;;;;;;4973858;28;20212;-65
2022/04/18 02:40:40;;;;;;;0.00;0.00;;;;;;;;;;4973289;28;20206;-65
2022/04/18 02:43:08;;;;;;;0.00;0.00;;;;;;;;;;4973715;28;20209;-65
2022/04/18 02:45:37;;;;;;;0.00;0.00;;;;;;;;;;4973760;28;20204;-65
2022/04/18 02:48:04;;;;;;;0.00;0.00;;;;;;;;;;4973685;28;20198;-65
2022/04/18 02:50:31;;;;;;;0.00;0.00;;;;;;;;;;4954368;28;20704;-65
2022/04/18 02:52:59;;;;;;;0.00;0.00;;;;;;;;;;4954282;29;20195;-65
2022/04/18 02:55:26;;;;;;;0.00;0.00;;;;;;;;;;4954261;28;20294;-65
2022/04/18 02:57:54;;;;;;;0.00;0.00;;;;;;;;;;4972222;28;20237;-65
2022/04/18 03:00:22;;;;;;;0.00;0.00;;;;;;;;;;4973207;28;20234;-66
2022/04/18 03:02:50;;;;;;;0.00;0.00;;;;;;;;;;4973327;28;20205;-65
2022/04/18 03:05:18;;;;;;;0.00;0.00;;;;;;;;;;4973412;28;20205;-65
2022/04/18 03:07:45;;;;;;;0.00;0.00;;;;;;;;;;4973474;28;20201;-65
2022/04/18 03:10:12;;;;;;;0.00;0.00;;;;;;;;;;4973444;28;20198;-65
2022/04/18 03:12:40;;;;;;;2.00;1.70;;;;;;;;;;4973080;28;20203;-66
2022/04/18 03:15:08;;;;;;;0.00;0.00;;;;;;;;;;4973289;28;20213;-66
2022/04/18 03:17:35;;;;;;;0.00;0.00;;;;;;;;;;4973467;28;20202;-66
2022/04/18 03:20:05;;;;;;;3.20;3.00;;;;;;;;;;4973287;28;20205;-66
2022/04/18 03:22:33;;;;;;;0.33;0.33;;;;;;;;;;4973361;28;20284;-65
2022/04/18 03:25:01;;;;;;;0.00;0.00;;;;;;;;;;4978353;28;20204;-65
2022/04/18 03:27:28;;;;;;;0.00;0.00;;;;;;;;;;4979386;28;20198;-65
2022/04/18 03:29:55;;;;;;;0.00;0.00;;;;;;;;;;4978877;28;20198;-65
2022/04/18 03:32:23;;;;;;;0.23;0.23;;;;;;;;;;4979623;28;20226;-66
2022/04/18 03:34:50;;;;;;;0.00;0.00;;;;;;;;;;4979610;28;20206;-65
2022/04/18 03:40:04;;;;;;;0.10;0.10;;;;;;;;;;4979614;28;20244;-66
2022/04/18 03:42:31;;;;;;;0.00;0.00;;;;;;;;;;4979606;28;20198;-66
2022/04/18 03:45:00;;;;;;;0.00;0.00;;;;;;;;;;4979480;28;20198;-66
2022/04/18 03:47:28;;;;;;;0.00;0.00;;;;;;;;;;4973029;28;20202;-65
2022/04/18 03:49:55;;;;;;;0.00;0.00;;;;;;;;;;4960382;29;20576;-65
2022/04/18 03:52:24;;;;;;;0.00;0.00;;;;;;;;;;4960003;29;20262;-65
2022/04/18 03:54:52;;;;;;;0.00;0.00;;;;;;;;;;4960257;29;20293;-65
2022/04/18 03:57:20;;;;;;;0.00;0.00;;;;;;;;;;4960076;28;20328;-66
2022/04/18 03:59:49;;;;;;;0.00;0.00;;;;;;;;;;4960185;28;20199;-65
2022/04/18 04:02:17;;;;;;;0.00;0.00;;;;;;;;;;4960180;28;20203;-65
2022/04/18 04:04:44;;;;;;;0.00;0.00;;;;;;;;;;4968500;28;20237;-65
2022/04/18 04:07:11;;;;;;;0.00;0.00;;;;;;;;;;4979076;28;20199;-64
2022/04/18 04:09:40;;;;;;;0.00;0.00;;;;;;;;;;4979276;28;20198;-65
2022/04/18 04:12:08;;;;;;;0.00;0.00;;;;;;;;;;4979403;28;20253;-65
2022/04/18 04:14:36;;;;;;;0.00;0.00;;;;;;;;;;4979398;28;20261;-65
2022/04/18 04:17:03;;;;;;;0.30;0.30;;;;;;;;;;4979300;28;20205;-65
2022/04/18 04:19:30;;;;;;;0.00;0.00;;;;;;;;;;4978923;28;20285;-65
2022/04/18 04:21:58;;;;;;;0.00;0.00;;;;;;;;;;4978364;28;20206;-65
2022/04/18 04:24:25;;;;;;;0.00;0.00;;;;;;;;;;4979369;28;20206;-65
2022/04/18 04:26:54;;;;;;;0.00;0.00;;;;;;;;;;4979019;28;20680;-65
2022/04/18 04:29:21;;;;;;;0.00;0.00;;;;;;;;;;4979050;28;20198;-65
2022/04/18 04:31:49;;;;;;;0.00;0.00;;;;;;;;;;4979031;28;20230;-65
2022/04/18 04:34:16;;;;;;;0.00;0.00;;;;;;;;;;4979051;28;20198;-65
2022/04/18 04:36:43;;;;;;;0.00;0.00;;;;;;;;;;4975461;28;20210;-65
2022/04/18 04:39:11;;;;;;;0.00;0.00;;;;;;;;;;4975266;28;20237;-65
2022/04/18 04:41:38;;;;;;;0.00;0.00;;;;;;;;;;4976165;28;20252;-67
2022/04/18 04:44:08;;;;;;;0.00;0.00;;;;;;;;;;4976072;28;20283;-66
2022/04/18 04:46:35;;;;;;;0.00;0.00;;;;;;;;;;4975729;28;20205;-66
2022/04/18 04:49:03;;;;;;;0.47;0.47;;;;;;;;;;4975604;28;20253;-67
2022/04/18 04:51:30;;;;;;;0.00;0.00;;;;;;;;;;4975820;28;20289;-67
2022/04/18 04:53:59;;;;;;;0.00;0.00;;;;;;;;;;4976010;28;20194;-67
2022/04/18 04:56:28;;;;;;;0.00;0.00;;;;;;;;;;4975202;28;20714;-67
2022/04/18 04:58:55;;;;;;;0.00;0.00;;;;;;;;;;4975787;28;20198;-65
2022/04/18 05:01:25;;;;;;;0.00;0.00;;;;;;;;;;4975323;28;20262;-65
2022/04/18 05:03:53;;;;;;;0.10;0.10;;;;;;;;;;4975786;28;20199;-65
2022/04/18 05:06:21;;;;;;;0.00;0.00;;;;;;;;;;4975737;28;20202;-65
2022/04/18 05:08:48;;;;;;;0.00;0.00;;;;;;;;;;4975679;28;20202;-65
2022/04/18 05:11:15;;;;;;;0.00;0.00;;;;;;;;;;4975296;28;20325;-66
2022/04/18 05:13:43;;;;;;;0.00;0.00;;;;;;;;;;4974732;28;20210;-65
2022/04/18 05:16:10;;;;;;;0.00;0.00;;;;;;;;;;4975433;28;20230;-66
2022/04/18 05:18:39;;;;;;;0.00;0.00;;;;;;;;;;4975395;28;20207;-67
2022/04/18 05:21:06;;;;;;;0.00;0.00;;;;;;;;;;4975226;28;20202;-65
2022/04/18 05:23:34;;;;;;;0.30;0.30;;;;;;;;;;4975253;28;20225;-65
2022/04/18 05:26:01;;;;;;;0.00;0.00;;;;;;;;;;4975098;28;20301;-64
2022/04/18 05:28:29;;;;;;;0.10;0.10;;;;;;;;;;4974911;28;20248;-65
2022/04/18 05:30:56;;;;;;;0.00;0.00;;;;;;;;;;4974257;28;20599;-65
2022/04/18 05:33:23;;;;;;;0.00;0.00;;;;;;;;;;4974966;28;20632;-64
2022/04/18 05:35:52;;;;;;;0.00;0.00;;;;;;;;;;4974959;28;20205;-64
2022/04/18 05:38:20;;;;;;;0.00;0.00;;;;;;;;;;4975020;28;20206;-65
2022/04/18 05:40:47;;;;;;;0.00;0.00;;;;;;;;;;4974878;28;20202;-65
2022/04/18 05:43:17;;;;;;;0.03;0.03;;;;;;;;;;4974503;28;20202;-65
2022/04/18 05:45:44;;;;;;;0.00;0.00;;;;;;;;;;4974075;28;20652;-65
2022/04/18 05:48:12;;;;;;;0.00;0.00;;;;;;;;;;4974653;28;20209;-65
2022/04/18 05:50:45;;;;;;;0.00;0.00;;;;;;;;;;4974718;28;20210;-65
2022/04/18 05:53:14;;;;;;;0.00;0.00;;;;;;;;;;4974350;28;20324;-65
2022/04/18 05:55:41;;;;;;;0.03;0.03;;;;;;;;;;4974446;28;20209;-65
2022/04/18 05:58:09;;;;;;;0.00;0.00;;;;;;;;;;4974866;28;20209;-65
2022/04/18 06:00:36;;;;;;;0.00;0.00;;;;;;;;;;4974284;28;20238;-65
2022/04/18 06:03:03;;;;;;;0.00;0.00;;;;;;;;;;4973686;28;20220;-65
2022/04/18 06:05:32;;;;;;;0.00;0.00;;;;;;;;;;4974204;28;20257;-65
2022/04/18 06:08:00;;;;;;;0.50;0.40;;;;;;;;;;4974382;28;20571;-65
2022/04/18 06:10:29;;;;;;;0.00;0.00;;;;;;;;;;4974409;28;20199;-66
2022/04/18 06:12:56;;;;;;;0.00;0.00;;;;;;;;;;4974421;28;20253;-64
2022/04/18 06:15:23;;;;;;;0.00;0.00;;;;;;;;;;4974032;28;20230;-65
2022/04/18 06:17:51;;;;;;;0.00;0.00;;;;;;;;;;4974093;28;20202;-65
2022/04/18 06:20:19;;;;;;;0.40;0.10;;;;;;;;;;4973154;28;20210;-64
2022/04/18 06:22:46;;;;;;;0.00;0.00;;;;;;;;;;4974253;28;20289;-65
2022/04/18 06:25:14;;;;;;;0.00;0.00;;;;;;;;;;4973794;28;20668;-65
2022/04/18 06:27:42;;;;;;;0.00;0.00;;;;;;;;;;4973956;28;20209;-65
2022/04/18 06:30:10;;;;;;;0.00;0.00;;;;;;;;;;4973984;28;20212;-65
2022/04/18 06:32:38;;;;;;;0.00;0.00;;;;;;;;;;4973724;28;20230;-65
2022/04/18 06:35:06;;;;;;;0.00;0.00;;;;;;;;;;4973715;28;20205;-65
2022/04/18 06:37:34;;;;;;;0.00;0.00;;;;;;;;;;4973466;28;20641;-65
2022/04/18 06:40:01;;;;;;;0.30;0.30;;;;;;;;;;4974049;28;20467;-65
2022/04/18 06:42:28;;;;;;;0.00;0.00;;;;;;;;;;4973733;28;20233;-65
2022/04/18 06:44:57;;;;;;;0.33;0.33;;;;;;;;;;4973767;28;20206;-65
2022/04/18 06:47:24;;;;;;;1.00;0.93;;;;;;;;;;4973374;28;20209;-66
2022/04/18 06:49:52;;;;;;;1.58;0.28;;;;;;;;;;4973457;28;20217;-66
2022/04/18 06:52:19;;;;;;;0.00;0.00;;;;;;;;;;4973451;28;20234;-66
2022/04/18 06:54:46;;;;;;;0.00;0.00;;;;;;;;;;4972944;28;20574;-65
2022/04/18 06:57:13;;;;;;;0.00;0.00;;;;;;;;;;4973463;28;20202;-66
2022/04/18 06:59:40;;;;;;;0.00;0.00;;;;;;;;;;4972805;28;20244;-66
2022/04/18 07:02:09;;;;;;;0.00;0.00;;;;;;;;;;4973485;28;20194;-66
2022/04/18 07:04:37;;;;;;;0.00;0.00;;;;;;;;;;4973711;28;20209;-66
2022/04/18 07:07:06;;;;;;;0.00;0.00;;;;;;;;;;4973410;28;20687;-66
2022/04/18 07:09:33;;;;;;;0.00;0.00;;;;;;;;;;4973142;28;20241;-66
2022/04/18 07:12:00;;;;;;;0.13;0.13;;;;;;;;;;4972847;28;20271;-66
2022/04/18 07:14:28;;;;;;;0.30;0.30;;;;;;;;;;4973367;28;20210;-66
2022/04/18 07:16:55;;;;;;;0.00;0.00;;;;;;;;;;4973524;28;20202;-66
2022/04/18 07:19:24;;;;;;;0.00;0.00;;;;;;;;;;4973236;28;20202;-66
2022/04/18 07:21:51;;;;;;;0.80;0.35;;;;;;;;;;4973167;28;20664;-66
2022/04/18 07:24:19;;;;;;;0.10;0.10;;;;;;;;;;4973297;28;20198;-66
2022/04/18 07:26:46;;;;;;;0.03;0.03;;;;;;;;;;4973502;28;20198;-67
2022/04/18 07:29:14;;;;;;;0.00;0.00;;;;;;;;;;4972254;28;20212;-66
2022/04/18 07:31:41;;;;;;;0.00;0.00;;;;;;;;;;4972957;28;20202;-65
2022/04/18 07:34:09;;;;;;;0.10;0.10;;;;;;;;;;4973134;28;20296;-66
2022/04/18 07:36:38;;;;;;;0.30;0.30;;;;;;;;;;4973249;28;20198;-66
2022/04/18 07:39:05;;;;;;;1.55;1.45;;;;;;;;;;4973160;28;20198;-66
2022/04/18 07:41:32;;;;;;;0.55;0.55;;;;;;;;;;4972761;28;20202;-66
2022/04/18 07:44:01;;;;;;;0.60;0.60;;;;;;;;;;4972600;28;20213;-66
2022/04/18 07:46:29;;;;;;;0.05;0.05;;;;;;;;;;4972600;28;20215;-66
2022/04/18 07:48:57;;;;;;;0.00;0.00;;;;;;;;;;4973138;28;20281;-66
2022/04/18 07:51:35;;;;;;;0.00;0.00;;;;;;;;;;4972716;28;20203;-65
2022/04/18 07:54:05;;;;;;;0.10;0.10;;;;;;;;;;4972723;28;20765;-66
2022/04/18 07:56:33;;;;;;;0.10;0.08;;;;;;;;;;4973028;28;20734;-65
2022/04/18 07:59:00;;;;;;;1.25;0.17;;;;;;;;;;4972849;28;20199;-65
2022/04/18 08:01:28;;;;;;;0.00;0.00;;;;;;;;;;4972293;28;20680;-65
2022/04/18 08:03:57;;;;;;;0.00;0.00;;;;;;;;;;4972232;28;20210;-65
2022/04/18 08:06:24;;;;;;;0.45;0.45;;;;;;;;;;4953494;28;20241;-66
2022/04/18 08:08:51;;;;;;;0.00;0.00;;;;;;;;;;4953473;29;20199;-65
2022/04/18 08:11:20;;;;;;;0.20;0.20;;;;;;;;;;4956380;28;20203;-66
2022/04/18 08:13:48;;;;;;;0.57;0.57;;;;;;;;;;4957005;29;20256;-66
2022/04/18 08:16:16;;;;;;;0.25;0.25;;;;;;;;;;4957182;28;20199;-65
2022/04/18 08:18:44;;;;;;;0.43;0.43;;;;;;;;;;4957464;28;20549;-66
2022/04/18 08:21:12;;;;;;;1.10;0.60;;;;;;;;;;4975968;28;20199;-66
2022/04/18 08:23:40;;;;;;;0.00;0.00;;;;;;;;;;4973929;28;20784;-66
2022/04/18 08:26:08;;;;;;;0.00;0.00;;;;;;;;;;4971454;28;20626;-65
2022/04/18 08:28:37;;;;;;;0.10;0.10;;;;;;;;;;4973681;28;20299;-65
2022/04/18 08:31:05;;;;;;;0.00;0.00;;;;;;;;;;4976102;28;20202;-65
2022/04/18 08:33:33;;;;;;;2.72;0.65;;;;;;;;;;4975346;28;20226;-66
2022/04/18 08:36:00;;;;;;;0.00;0.00;;;;;;;;;;4974936;28;20606;-66
2022/04/18 08:38:28;;;;;;;0.00;0.00;;;;;;;;;;4976229;28;20608;-68
2022/04/18 08:40:56;;;;;;;0.10;0.10;;;;;;;;;;4973320;28;20678;-66
2022/04/18 08:43:24;;;;;;;0.15;0.15;;;;;;;;;;4975832;28;20203;-66
2022/04/18 08:45:53;;;;;;;0.10;0.10;;;;;;;;;;4975850;28;20763;-66
2022/04/18 08:53:52;;;;;;;0.22;0.22;;;;;;;;;;4970368;28;20377;-67
2022/04/18 08:56:19;;;;;;;0.95;0.25;;;;;;;;;;4974983;28;20224;-68
2022/04/18 08:58:46;;;;;;;0.13;0.13;;;;;;;;;;4975467;28;20202;-69
2022/04/18 09:01:16;;;;;;;0.20;0.20;;;;;;;;;;4975035;28;20602;-68
2022/04/18 09:03:43;;;;;;;0.00;0.00;;;;;;;;;;4973574;28;20257;-69
2022/04/18 09:06:11;;;;;;;0.10;0.10;;;;;;;;;;4972468;28;20679;-68
2022/04/18 09:08:46;;;;;;;0.00;0.00;;;;;;;;;;4973130;28;20209;-69
2022/04/18 09:11:26;;;;;;;0.03;0.03;;;;;;;;;;4973636;28;20655;-67
2022/04/18 09:13:58;;;;;;;0.22;0.22;;;;;;;;;;4975582;28;20230;-65
2022/04/18 09:16:31;;;;;;;0.43;0.30;;;;;;;;;;4972449;28;20202;-65
2022/04/18 09:19:06;;;;;;;0.00;0.00;;;;;;;;;;4974188;28;20664;-65
2022/04/18 09:21:33;;;;;;;0.00;0.00;;;;;;;;;;4972365;28;20198;-65
2022/04/18 09:24:01;;;;;;;0.00;0.00;;;;;;;;;;4973980;28;20767;-67
2022/04/18 09:26:28;;;;;;;0.10;0.10;;;;;;;;;;4974014;28;20565;-67
2022/04/18 09:29:03;;;;;;;0.32;0.25;;;;;;;;;;4970227;28;20210;-68
2022/04/18 09:31:39;;;;;;;0.10;0.10;;;;;;;;;;4975033;28;20202;-65
2022/04/18 09:34:07;;;;;;;1.10;0.30;;;;;;;;;;4974796;28;20658;-67
2022/04/18 09:36:34;;;;;;;0.10;0.10;;;;;;;;;;4970362;28;20198;-67
2022/04/18 09:39:01;;;;;;;0.08;0.08;;;;;;;;;;4974958;28;20210;-64
2022/04/18 09:41:29;;;;;;;0.17;0.08;;;;;;;;;;4974540;28;20669;-66
2022/04/18 09:43:57;;;;;;;0.47;0.47;;;;;;;;;;4974169;28;20217;-66
2022/04/18 09:46:25;;;;;;;0.00;0.00;;;;;;;;;;4972711;28;20199;-66
2022/04/18 09:48:54;;;;;;;0.30;0.30;;;;;;;;;;4963175;28;20207;-68
2022/04/18 09:51:25;;;;;;;0.13;0.13;;;;;;;;;;4973712;28;20212;-66
2022/04/18 09:53:57;;;;;;;1.25;1.25;;;;;;;;;;4960350;28;20235;-68
2022/04/18 09:56:25;;;;;;;0.20;0.10;;;;;;;;;;4959663;28;20277;-68
2022/04/18 09:58:55;;;;;;;3.22;1.83;;;;;;;;;;4974585;28;20580;-67
2022/04/18 10:01:23;;;;;;;0.00;0.00;;;;;;;;;;4972409;28;20293;-67
2022/04/18 10:03:52;;;;;;;0.20;0.10;;;;;;;;;;4974664;28;20253;-67
2022/04/18 10:06:21;;;;;;;0.03;0.03;;;;;;;;;;4965815;28;20202;-66
2022/04/18 10:08:49;;;;;;;0.00;0.00;;;;;;;;;;4972057;28;20328;-67
2022/04/18 10:11:17;;;;;;;0.75;0.75;;;;;;;;;;4972407;28;20648;-66
2022/04/18 10:13:45;;;;;;;3.25;1.23;;;;;;;;;;4974095;28;20249;-66
2022/04/18 10:16:15;;;;;;;0.60;0.60;;;;;;;;;;4974036;28;20225;-68
2022/04/18 10:18:45;;;;;;;0.85;0.25;;;;;;;;;;4973205;28;20583;-67
2022/04/18 10:21:30;;;;;;;1.95;0.80;;;;;;;;;;4967213;28;20199;-66
2022/04/18 10:24:16;;;;;;;0.10;0.10;;;;;;;;;;4973570;28;20214;-67
2022/04/18 10:27:02;;;;;;;0.95;0.77;;;;;;;;;;4974098;28;20288;-66
2022/04/18 10:29:31;;;;;;;1.10;1.10;;;;;;;;;;4973053;28;20202;-66
2022/04/18 10:32:02;;;;;;;0.30;0.30;;;;;;;;;;4974018;28;20198;-67
2022/04/18 10:34:31;;;;;;;0.13;0.13;;;;;;;;;;4972974;28;20230;-68
2022/04/18 10:37:01;;;;;;;0.35;0.22;;;;;;;;;;4972338;28;20202;-67
2022/04/18 10:39:34;;;;;;;0.00;0.00;;;;;;;;;;4972888;28;20205;-67
2022/04/18 10:42:19;;;;;;;1.30;1.30;;;;;;;;;;4968936;28;20207;-67
2022/04/18 10:44:58;;;;;;;0.17;0.17;;;;;;;;;;4960269;28;20669;-68
2022/04/18 10:47:25;;;;;;;2.20;1.88;;;;;;;;;;4969386;28;20249;-67
2022/04/18 10:50:07;;;;;;;2.30;0.90;;;;;;;;;;4972611;28;20568;-67
2022/04/18 10:52:36;;;;;;;0.10;0.10;;;;;;;;;;4969774;28;20209;-67
2022/04/18 10:55:04;;;;;;;0.05;0.05;;;;;;;;;;4973629;28;20656;-67
2022/04/18 10:57:32;;;;;;;0.40;0.40;;;;;;;;;;4972456;28;20572;-67
2022/04/18 10:59:59;;;;;;;0.10;0.10;;;;;;;;;;4973346;28;20581;-68
2022/04/18 11:02:41;;;;;;;0.60;0.60;;;;;;;;;;4973709;28;20241;-67
2022/04/18 11:05:08;;;;;;;0.00;0.00;;;;;;;;;;4972911;28;20210;-68
2022/04/18 11:07:41;;;;;;;0.22;0.22;;;;;;;;;;4972677;28;20230;-67
2022/04/18 11:10:19;;;;;;;0.13;0.05;;;;;;;;;;4972388;28;20214;-67
2022/04/18 11:12:46;;;;;;;0.00;0.00;;;;;;;;;;4973607;28;20198;-66
2022/04/18 11:15:15;;;;;;;0.85;0.63;;;;;;;;;;4973179;28;20665;-66
2022/04/18 11:17:43;;;;;;;0.00;0.00;;;;;;;;;;4971996;28;20217;-66
2022/04/18 11:20:26;;;;;;;0.00;0.00;;;;;;;;;;4953829;28;20207;-67
2022/04/18 11:23:12;;;;;;;0.00;0.00;;;;;;;;;;4964557;28;20707;-69
2022/04/18 11:25:52;;;;;;;0.00;0.00;;;;;;;;;;4972304;28;20198;-68
2022/04/18 11:28:19;;;;;;;0.00;0.00;;;;;;;;;;4961050;28;20194;-70
2022/04/18 11:30:47;;;;;;;0.13;0.13;;;;;;;;;;4965169;28;20312;-67
2022/04/18 11:33:14;;;;;;;0.40;0.40;;;;;;;;;;4968838;28;20785;-67
2022/04/18 11:35:42;;;;;;;1.05;1.05;;;;;;;;;;4972323;28;20680;-66
2022/04/18 11:38:10;;;;;;;3.67;3.40;;;;;;;;;;4973174;28;20206;-66
2022/04/18 11:40:38;;;;;;;0.10;0.10;;;;;;;;;;4973107;28;20195;-67
2022/04/18 11:43:13;;;;;;;0.10;0.10;;;;;;;;;;4973029;28;20237;-66
2022/04/18 11:45:40;;;;;;;0.08;0.00;;;;;;;;;;4973379;28;20201;-66
2022/04/18 11:48:07;;;;;;;0.00;0.00;;;;;;;;;;4975583;28;20302;-66
2022/04/18 11:50:37;;;;;;;0.00;0.00;;;;;;;;;;4975306;28;20599;-66
2022/04/18 11:53:05;;;;;;;0.47;0.32;;;;;;;;;;4976849;28;20202;-66
2022/04/18 11:55:33;;;;;;;0.52;0.52;;;;;;;;;;4976732;28;20209;-66
2022/04/18 11:58:01;;;;;;;0.75;0.75;;;;;;;;;;4975467;28;20198;-66
2022/04/18 12:08:46;;;;;;;0.88;0.57;;;;;;;;;;4957405;28;20210;-66
2022/04/18 12:11:13;;;;;;;0.00;0.00;;;;;;;;;;4957257;29;20195;-66
2022/04/18 12:13:44;;;;;;;0.43;0.43;;;;;;;;;;4973147;28;20229;-66
2022/04/18 12:16:13;;;;;;;0.70;0.70;;;;;;;;;;4975678;28;20199;-66
2022/04/18 12:18:40;;;;;;;0.40;0.40;;;;;;;;;;4973954;28;20209;-66
2022/04/18 12:21:08;;;;;;;2.40;2.20;;;;;;;;;;4976300;28;20609;-66
2022/04/18 12:23:36;;;;;;;0.57;0.57;;;;;;;;;;4976723;28;20202;-66
2022/04/18 12:26:04;;;;;;;0.00;0.00;;;;;;;;;;4976512;28;20202;-66
2022/04/18 12:28:32;;;;;;;0.47;0.47;;;;;;;;;;4974488;28;20202;-67
2022/04/18 12:30:59;;;;;;;0.40;0.40;;;;;;;;;;4956716;28;20657;-66
2022/04/18 12:33:30;;;;;;;0.28;0.28;;;;;;;;;;4956556;28;20227;-67
2022/04/18 12:35:59;;;;;;;0.00;0.00;;;;;;;;;;4961217;28;20619;-67
2022/04/18 12:38:31;;;;;;;0.00;0.00;;;;;;;;;;4976301;28;20293;-66
2022/04/18 12:40:59;;;;;;;0.08;0.08;;;;;;;;;;4976114;28;20668;-66
2022/04/18 12:43:28;;;;;;;0.43;0.35;;;;;;;;;;4974729;28;20202;-67
2022/04/18 12:45:58;;;;;;;0.00;0.00;;;;;;;;;;4968882;28;20265;-67
2022/04/18 12:48:26;;;;;;;0.10;0.10;;;;;;;;;;4970009;28;20663;-68
2022/04/18 12:50:56;;;;;;;0.98;0.95;;;;;;;;;;4969483;28;20296;-67
2022/04/18 12:53:43;;;;;;;0.28;0.28;;;;;;;;;;4973447;28;20206;-66
2022/04/18 12:56:11;;;;;;;0.00;0.00;;;;;;;;;;4972762;28;20202;-69
2022/04/18 12:58:40;;;;;;;0.00;0.00;;;;;;;;;;4973905;28;20198;-68
2022/04/18 13:01:08;;;;;;;0.15;0.15;;;;;;;;;;4974490;28;20230;-67
2022/04/18 13:03:42;;;;;;;0.00;0.00;;;;;;;;;;4973378;28;20297;-67
2022/04/18 13:06:11;;;;;;;0.43;0.43;;;;;;;;;;4973722;28;20205;-67
2022/04/18 13:08:38;;;;;;;0.57;0.57;;;;;;;;;;4973337;28;20660;-67
2022/04/18 13:11:06;;;;;;;0.00;0.00;;;;;;;;;;4973946;28;20202;-68
2022/04/18 13:13:33;;;;;;;0.55;0.55;;;;;;;;;;4973322;28;20225;-68
2022/04/18 13:16:20;;;;;;;0.00;0.00;;;;;;;;;;4969303;28;20625;-67
2022/04/18 13:18:48;;;;;;;2.55;0.70;;;;;;;;;;4971633;28;20193;-69
2022/04/18 13:21:16;;;;;;;0.08;0.08;;;;;;;;;;4973224;28;20198;-66
2022/04/18 13:23:44;;;;;;;0.00;0.00;;;;;;;;;;4974503;28;20206;-66
2022/04/18 13:26:11;;;;;;;0.28;0.28;;;;;;;;;;4973133;28;20210;-67
2022/04/18 13:28:39;;;;;;;0.10;0.10;;;;;;;;;;4973007;28;20210;-67
2022/04/18 13:31:06;;;;;;;0.00;0.00;;;;;;;;;;4973948;28;20203;-66
2022/04/18 13:33:33;;;;;;;0.00;0.00;;;;;;;;;;4973082;28;20230;-66
2022/04/18 13:38:47;;;;;;;0.65;0.65;;;;;;;;;;4973312;28;20771;-66
2022/04/18 13:41:15;;;;;;;1.08;0.85;;;;;;;;;;4972562;28;20290;-67
2022/04/18 13:43:43;;;;;;;0.00;0.00;;;;;;;;;;4973085;28;20207;-66
2022/04/18 13:46:10;;;;;;;0.10;0.10;;;;;;;;;;4963091;28;20262;-67
2022/04/18 13:48:38;;;;;;;0.50;0.25;;;;;;;;;;4972826;28;20282;-67
2022/04/18 13:51:05;;;;;;;0.00;0.00;;;;;;;;;;4964924;28;20214;-67
2022/04/18 13:53:32;;;;;;;0.00;0.00;;;;;;;;;;4974599;28;20253;-66
2022/04/18 13:56:01;;;;;;;0.85;0.85;;;;;;;;;;4974540;28;20294;-68
2022/04/18 13:58:29;;;;;;;0.80;0.40;;;;;;;;;;4974489;28;20202;-68
2022/04/18 14:00:56;;;;;;;0.80;0.32;;;;;;;;;;4972311;28;20698;-66
2022/04/18 14:03:25;;;;;;;0.55;0.30;;;;;;;;;;4973624;28;20386;-67
2022/04/18 14:05:53;;;;;;;0.10;0.10;;;;;;;;;;4974340;28;20249;-67
2022/04/18 14:08:20;;;;;;;0.00;0.00;;;;;;;;;;4974104;28;20202;-67
2022/04/18 14:10:48;;;;;;;0.00;0.00;;;;;;;;;;4973756;28;20202;-67
2022/04/18 14:13:18;;;;;;;0.00;0.00;;;;;;;;;;4961149;28;20269;-66
2022/04/18 14:21:15;;;;;;;0.10;0.10;;;;;;;;;;4954671;28;20277;-69
2022/04/18 14:23:43;;;;;;;0.13;0.13;;;;;;;;;;4954717;28;20210;-68
2022/04/18 14:26:10;;;;;;;0.00;0.00;;;;;;;;;;4954762;28;20202;-65
2022/04/18 14:28:39;;;;;;;0.52;0.52;;;;;;;;;;4955050;28;20203;-68
2022/04/18 14:31:07;;;;;;;0.00;0.00;;;;;;;;;;4972441;28;20207;-66
2022/04/18 14:33:34;;;;;;;0.00;0.00;;;;;;;;;;4973418;28;20206;-66
2022/04/18 14:36:03;;;;;;;0.60;0.50;;;;;;;;;;4973165;28;20230;-67
2022/04/18 14:38:31;;;;;;;0.00;0.00;;;;;;;;;;4954425;28;20209;-67
2022/04/18 14:40:59;;;;;;;0.00;0.00;;;;;;;;;;4972350;28;20613;-66
2022/04/18 14:43:27;;;;;;;0.00;0.00;;;;;;;;;;4973573;28;20728;-67
2022/04/18 14:45:55;;;;;;;0.10;0.10;;;;;;;;;;4973827;28;20208;-66
2022/04/18 14:48:23;;;;;;;0.00;0.00;;;;;;;;;;4969634;28;20253;-66
2022/04/18 14:50:50;;;;;;;0.40;0.40;;;;;;;;;;4968841;28;20726;-65
2022/04/18 14:53:17;;;;;;;0.38;0.38;;;;;;;;;;4971938;28;20198;-67
2022/04/18 14:55:45;;;;;;;0.00;0.00;;;;;;;;;;4973739;28;20234;-68
2022/04/18 14:58:13;;;;;;;0.00;0.00;;;;;;;;;;4957387;28;20222;-66
2022/04/18 15:00:40;;;;;;;0.10;0.10;;;;;;;;;;4954215;28;20231;-69
2022/04/18 15:03:09;;;;;;;0.32;0.20;;;;;;;;;;4954198;28;20294;-69
2022/04/18 15:05:36;;;;;;;0.20;0.20;;;;;;;;;;4957446;28;20293;-68
2022/04/18 15:08:04;;;;;;;0.00;0.00;;;;;;;;;;4972380;28;20210;-68
2022/04/18 15:10:31;;;;;;;0.00;0.00;;;;;;;;;;4973411;28;20198;-68
2022/04/18 15:12:59;;;;;;;1.08;0.63;;;;;;;;;;4970610;28;20746;-67
2022/04/18 15:15:27;;;;;;;0.00;0.00;;;;;;;;;;4972167;28;20242;-67
2022/04/18 15:17:55;;;;;;;0.20;0.20;;;;;;;;;;4973289;28;20190;-67